Wappingers Falls, NY

3:33 PM EDT on May 29, 2015 (GMT -0400)
RAWS | | Change Station
CLOSE
Current Station
Personal Weather Station
Location: Castle Point, NY
Elevation: 200 ft
Nearby Weather Stations

Elev 200 ft 41.54 °N, 73.95 °W | Updated 1 hour ago

Clear
Clear
82 °F
Feels Like 82 °F
N
4
Wind Variable Wind from WSW
Gusts 8.0 mph

Today
High -- | Low -- °F
--% Chance of Precip.
Yesterday
High -- | Low -- °F
Precip. -- in
5:25 AM 8:20 PM
Waxing Gibbous, 85% visible
Pressure 30.27 in
Visibility 20.0 miles
Clouds Clear
Heat Index 82 °F
Dew Point 60 °F
Humidity 48%
Rainfall in
Snow Depth Not available.
UV 10 out of 12
Pollen 9.40 out of 12
Air Quality Not available.
Flu Activity Widespread
METAR KSWF 291845Z VRB05KT 20SM SKC 26/13 A3027

More Conditions Fewer Conditions

Pressure 30.27 in
Visibility 20.0 miles
Clouds Clear
Heat Index 82 °F
Dew Point 60 °F
Humidity 48%
Rainfall in
Snow Depth Not available.
UV 10 out of 12
Pollen 9.40 out of 12
Air Quality Not available.
Flu Activity Widespread
METAR KSWF 291845Z VRB05KT 20SM SKC 26/13 A3027

More Conditions Fewer Conditions

10-Day Weather Forecast

Almanac

Astronomy

May. 29, 2015 Rise Set
Actual Time
Civil Twilight
Nautical Twilight
Astronomical Twilight
Moon
Length of Visible Light
Length of Day
Tomorrow will be .
, % of the Moon is Illuminated

Today's Extremes

State Highs State Lows

Community

WunderPhotos

Upload Photos

1,825,331 photos uploaded!

WunderBlogs® & News

Nearby

Air Quality

  Air Quality AQ Index Pollutant
Not available.

Snow Depth

Station Depth Elevation

Earthquake Activity

City Distance Mag. Time & Date
Minimum magnitude displayed is 2.5.

Coastal Water Temperatures

Place Temperature

Stations

Nearby Weather Stations

Station Location Temp. Windchill Dew Point Humidity Wind Precip. Elev Updated Type